Aviation Digital Data Service (ADDS)

Output produced by METARs form (1712 UTC 01 October 2016)
found at http://www.aviationweather.gov/adds/metars/
 
KWWD 011656Z AUTO 07010G17KT 7SM -RA 19/18 A3015 RMK AO2 RAB51 SLP212 P0000 T01890183 $